createdAt,value
2022-11-28T05:59:31.242Z,59.90
2022-11-28T06:02:03.473Z,65.30
2022-11-28T06:04:36.396Z,69.57
2022-11-28T06:07:08.914Z,70.20
2022-11-28T06:09:41.342Z,69.75
2022-11-28T06:12:14.041Z,67.03
2022-11-28T06:14:46.094Z,55.75
2022-11-28T06:17:18.133Z,64.05
2022-11-28T06:19:50.183Z,62.60
2022-11-28T06:22:22.408Z,58.83
2022-11-28T06:24:54.690Z,49.20
2022-11-28T06:27:26.826Z,52.05
2022-11-28T06:29:58.854Z,49.53
2022-11-28T06:32:31.209Z,50.70
2022-11-28T06:35:03.273Z,44.83
2022-11-28T06:37:35.334Z,50.72
2022-11-28T06:40:08.011Z,50.92
2022-11-28T06:42:40.074Z,49.23
2022-11-28T06:45:12.786Z,43.75
2022-11-28T06:47:44.905Z,56.07
2022-11-28T06:50:17.086Z,45.92
2022-11-28T06:52:50.131Z,49.22
2022-11-28T06:55:22.208Z,54.38
2022-11-28T06:57:54.261Z,59.65
2022-11-28T07:00:26.274Z,56.00
2022-11-28T14:27:02.129Z,20.75
2022-11-28T14:29:40.316Z,19.48
2022-11-28T14:32:30.544Z,16.45
2022-11-28T14:35:12.018Z,17.20
2022-11-28T14:37:54.285Z,18.38
2022-11-28T14:40:55.085Z,19.80
2022-11-28T14:43:35.108Z,20.00
2022-11-28T14:46:16.845Z,16.10
2022-11-28T14:48:58.520Z,17.40
2022-11-28T14:51:48.846Z,16.92
2022-11-28T14:54:36.396Z,16.05
2022-11-28T14:57:23.970Z,18.15
2022-11-28T15:00:00.103Z,17.13
2022-11-28T15:02:53.186Z,17.58
2022-11-28T15:05:39.104Z,16.73
2022-11-28T15:08:30.327Z,21.20
2022-11-28T15:11:16.643Z,18.05
2022-11-28T15:14:13.444Z,15.73
2022-11-28T15:16:50.502Z,19.05
2022-11-28T15:19:46.782Z,19.08
2022-11-28T15:22:33.029Z,22.75
2022-11-28T15:25:19.204Z,28.75
2022-11-28T15:27:51.774Z,31.67
2022-11-28T15:30:26.927Z,26.42
2022-11-28T15:33:00.432Z,29.67
2022-11-28T15:35:32.979Z,32.35
2022-11-28T15:38:05.212Z,27.80
2022-11-28T15:40:38.039Z,31.97
2022-11-28T15:43:13.310Z,28.52
2022-11-28T15:45:59.770Z,31.08
2022-11-28T15:48:39.734Z,26.00
2022-11-28T15:51:30.022Z,30.58
2022-11-28T15:54:13.394Z,31.55
2022-11-28T15:59:29.533Z,19.88
2022-11-28T16:02:16.057Z,22.38
2022-11-28T16:04:54.996Z,18.40
2022-11-28T16:07:27.187Z,19.23
2022-11-28T16:10:06.666Z,20.08
2022-11-28T16:12:41.764Z,35.90
2022-11-28T16:15:22.500Z,41.28
2022-11-28T16:17:55.983Z,35.25
2022-11-28T16:38:23.163Z,24.63
2022-11-28T16:41:01.709Z,26.77
2022-11-28T16:43:38.283Z,23.27
2022-11-28T16:46:23.967Z,20.35
2022-11-28T16:48:58.891Z,26.85
2022-11-28T16:51:39.259Z,29.50
2022-11-28T16:54:23.676Z,28.92
2022-11-28T16:57:09.900Z,29.75
2022-11-28T16:59:43.696Z,30.92
2022-11-28T17:02:29.354Z,27.65
2022-11-28T17:05:02.013Z,33.80
2022-11-28T17:07:34.099Z,27.13
2022-11-28T17:10:06.715Z,33.08
2022-11-28T17:12:39.274Z,30.92
2022-11-28T17:15:17.057Z,28.45
2022-11-28T17:17:49.124Z,62.30
2022-11-28T17:20:21.538Z,40.70
2022-11-28T17:22:56.487Z,29.55
2022-11-28T17:25:28.493Z,34.35
2022-11-28T17:28:00.529Z,79.32
2022-11-28T17:30:32.813Z,46.85
2022-11-28T17:33:05.471Z,35.97
2022-11-28T17:35:42.233Z,33.40
2022-11-28T17:38:14.288Z,30.27
2022-11-28T17:40:46.922Z,34.53
2022-11-28T17:43:21.635Z,28.42
2022-11-28T17:45:53.730Z,32.90
2022-11-28T17:48:26.092Z,32.50
2022-11-28T17:50:58.176Z,34.40
2022-11-28T17:53:30.581Z,33.70
2022-11-28T17:56:02.899Z,51.58
2022-11-28T17:58:34.985Z,38.17
2022-11-28T18:01:11.578Z,31.88
2022-11-28T18:03:43.687Z,33.60
2022-11-28T18:06:17.662Z,29.70
2022-11-28T18:08:50.857Z,36.38
2022-11-28T18:11:23.822Z,39.85
2022-11-28T18:13:57.786Z,40.80
2022-11-28T18:19:03.710Z,61.47
2022-11-28T18:21:36.087Z,66.78
2022-11-28T18:24:08.257Z,53.58
2022-11-28T18:26:40.534Z,51.28
2022-11-28T18:29:13.313Z,45.90
2022-11-28T18:31:45.366Z,44.05
2022-11-28T18:34:23.107Z,55.72
2022-11-28T18:40:42.348Z,49.00
2022-11-28T18:43:56.058Z,36.97
2022-11-28T18:46:58.335Z,46.40
2022-11-28T18:50:09.456Z,36.40
2022-11-28T18:52:41.441Z,33.90
2022-11-28T18:55:14.172Z,45.60
2022-11-28T18:57:46.906Z,51.85
2022-11-28T19:00:19.815Z,44.70
